createdAt,value
2023-04-22T00:01:35.456Z,15.63
2023-04-22T00:04:03.102Z,18.00
2023-04-22T00:06:32.020Z,14.75
2023-04-22T00:08:59.034Z,16.95
2023-04-22T00:11:26.424Z,13.10
2023-04-22T00:13:53.666Z,12.18
2023-04-22T00:16:21.562Z,14.75
2023-04-22T00:18:49.105Z,13.38
2023-04-22T00:21:16.830Z,13.23
2023-04-22T00:23:45.433Z,15.07
2023-04-22T00:26:12.619Z,14.23
2023-04-22T00:28:40.824Z,13.27
2023-04-22T00:31:07.977Z,11.50
2023-04-22T00:33:35.340Z,20.67
2023-04-22T00:36:02.507Z,13.90
2023-04-22T00:38:29.852Z,16.95
2023-04-22T00:40:57.782Z,11.88
2023-04-22T00:43:25.171Z,14.13
2023-04-22T00:45:53.233Z,12.45
2023-04-22T00:48:21.213Z,13.75
2023-04-22T00:50:48.838Z,15.48
2023-04-22T00:53:16.425Z,12.98
2023-04-22T00:55:44.244Z,15.68
2023-04-22T00:58:11.455Z,12.77
2023-04-22T01:00:39.120Z,16.58
2023-04-22T01:03:07.487Z,18.30
2023-04-22T01:05:36.137Z,14.05
2023-04-22T01:08:03.203Z,15.43
2023-04-22T01:10:30.820Z,12.23
2023-04-22T01:12:57.820Z,10.50
2023-04-22T01:15:25.300Z,12.18
2023-04-22T01:17:53.688Z,10.90
2023-04-22T01:20:23.264Z,12.60
2023-04-22T01:22:54.774Z,11.75
2023-04-22T01:25:24.790Z,12.23
2023-04-22T01:27:52.001Z,13.05
2023-04-22T01:30:19.800Z,10.77
2023-04-22T01:32:47.478Z,12.85
2023-04-22T01:35:14.982Z,12.05
2023-04-22T01:37:41.999Z,15.05
2023-04-22T01:40:10.282Z,11.13
2023-04-22T01:42:37.491Z,11.75
2023-04-22T01:45:06.003Z,15.60
2023-04-22T01:47:32.960Z,12.95
2023-04-22T01:50:00.277Z,16.80
2023-04-22T01:52:27.853Z,12.82
2023-04-22T01:54:55.531Z,11.50
2023-04-22T01:57:22.753Z,17.30
2023-04-22T01:59:50.227Z,10.02
2023-04-22T02:02:17.922Z,11.35
2023-04-22T02:04:45.420Z,13.75
2023-04-22T02:07:12.813Z,14.07
2023-04-22T02:09:40.151Z,13.38
2023-04-22T02:12:08.132Z,12.88
2023-04-22T02:14:35.345Z,12.85
2023-04-22T02:17:05.307Z,12.52
2023-04-22T02:19:32.574Z,13.45
2023-04-22T02:22:01.946Z,13.20
2023-04-22T02:24:29.207Z,13.88
2023-04-22T02:26:58.520Z,12.65
2023-04-22T02:29:25.900Z,13.52
2023-04-22T02:31:57.296Z,15.50
2023-04-22T02:34:24.786Z,15.23
2023-04-22T02:36:53.951Z,10.38
2023-04-22T02:39:23.416Z,17.98
2023-04-22T02:41:51.161Z,11.70
2023-04-22T02:44:18.658Z,12.70
2023-04-22T02:46:45.857Z,13.50
2023-04-22T02:49:13.085Z,11.90
2023-04-22T02:51:40.663Z,11.88
2023-04-22T02:54:07.881Z,13.25
2023-04-22T02:56:35.185Z,14.60
2023-04-22T02:59:02.473Z,12.27
2023-04-22T03:01:29.823Z,14.55
2023-04-22T03:04:00.971Z,15.18
2023-04-22T03:06:28.421Z,17.77
2023-04-22T03:08:57.245Z,15.85
2023-04-22T03:11:24.842Z,17.20
2023-04-22T03:13:51.967Z,13.30
2023-04-22T03:16:19.494Z,15.68
2023-04-22T03:18:47.421Z,14.65
2023-04-22T03:21:15.277Z,10.55
2023-04-22T03:23:43.034Z,13.07
2023-04-22T03:26:11.018Z,10.80
2023-04-22T03:28:40.507Z,15.82
2023-04-22T03:31:07.784Z,13.13
2023-04-22T03:33:35.523Z,9.90
2023-04-22T03:36:10.228Z,15.57
2023-04-22T03:38:37.750Z,11.85
2023-04-22T03:41:04.960Z,17.30
2023-04-22T03:43:40.309Z,16.58
2023-04-22T03:46:09.433Z,14.88
2023-04-22T03:48:40.599Z,12.43
2023-04-22T03:51:18.412Z,15.43
2023-04-22T03:53:46.204Z,16.05
2023-04-22T03:56:19.057Z,13.60
2023-04-22T03:58:47.672Z,13.35
2023-04-22T04:01:16.354Z,14.15
2023-04-22T04:03:48.720Z,14.63
2023-04-22T04:06:17.476Z,11.25
2023-04-22T04:08:44.696Z,13.45
2023-04-22T04:11:12.158Z,15.60
2023-04-22T04:13:39.615Z,12.32
2023-04-22T04:16:18.327Z,16.27
2023-04-22T04:18:51.282Z,12.65
2023-04-22T04:21:20.127Z,18.27
2023-04-22T04:23:50.954Z,12.48
2023-04-22T04:26:22.239Z,14.27
2023-04-22T04:28:55.529Z,19.52
2023-04-22T04:31:25.055Z,10.95
2023-04-22T04:33:53.953Z,13.10
2023-04-22T04:36:20.936Z,11.48
2023-04-22T04:38:49.101Z,15.13
2023-04-22T04:41:16.073Z,14.55
2023-04-22T04:43:46.429Z,11.77
2023-04-22T04:46:37.883Z,11.82
2023-04-22T04:49:12.911Z,13.70
2023-04-22T04:51:50.896Z,13.13
2023-04-22T04:54:18.706Z,14.15
2023-04-22T04:56:45.713Z,13.05
2023-04-22T04:59:14.658Z,12.27
2023-04-22T05:01:42.049Z,11.65
2023-04-22T05:04:12.758Z,11.68
2023-04-22T05:06:42.314Z,14.40
2023-04-22T05:09:10.235Z,13.70
2023-04-22T05:11:37.905Z,12.65
2023-04-22T05:14:12.516Z,13.70
2023-04-22T05:16:42.419Z,13.07
2023-04-22T05:19:10.538Z,12.57
2023-04-22T05:21:38.040Z,12.02
2023-04-22T05:24:05.820Z,12.55
2023-04-22T05:26:33.376Z,12.30
2023-04-22T05:29:03.239Z,12.68
2023-04-22T05:31:30.625Z,10.48
2023-04-22T05:33:58.514Z,10.30
2023-04-22T05:36:30.555Z,15.38
2023-04-22T05:38:59.763Z,12.25
2023-04-22T05:41:27.103Z,10.18
2023-04-22T05:43:56.443Z,10.18
2023-04-22T05:46:25.548Z,9.88
2023-04-22T05:48:54.870Z,13.93
2023-04-22T05:51:42.790Z,12.70
2023-04-22T05:54:12.425Z,11.35
2023-04-22T05:56:39.509Z,10.48
2023-04-22T05:59:06.982Z,15.23
2023-04-22T06:01:34.216Z,14.70
2023-04-22T06:04:06.611Z,10.20
2023-04-22T06:06:34.407Z,10.70
2023-04-22T06:09:02.097Z,12.55
2023-04-22T06:11:29.135Z,21.10
2023-04-22T06:13:56.551Z,20.25
2023-04-22T06:16:23.815Z,12.77
2023-04-22T06:18:51.527Z,17.13
2023-04-22T06:21:18.526Z,16.25
2023-04-22T06:23:46.315Z,13.18
2023-04-22T06:26:13.265Z,13.70
2023-04-22T06:28:41.301Z,20.83
2023-04-22T06:31:12.916Z,16.15
2023-04-22T06:33:41.256Z,13.05
2023-04-22T06:36:08.621Z,15.15
2023-04-22T06:38:36.944Z,15.48
2023-04-22T06:41:29.136Z,13.85
2023-04-22T06:44:01.048Z,19.27
2023-04-22T06:46:47.029Z,15.90
2023-04-22T06:49:38.375Z,11.85
2023-04-22T06:52:18.371Z,13.93
2023-04-22T06:54:45.942Z,16.58
2023-04-22T06:57:12.858Z,12.55
2023-04-22T06:59:41.205Z,13.77
2023-04-22T07:02:08.931Z,20.90
2023-04-22T07:04:39.486Z,14.43
2023-04-22T07:07:06.826Z,12.38
2023-04-22T07:09:34.098Z,12.77
2023-04-22T07:12:01.295Z,13.55
2023-04-22T07:14:31.691Z,9.10
2023-04-22T07:16:58.913Z,10.38
2023-04-22T07:19:26.991Z,14.82
2023-04-22T07:21:54.367Z,11.88
2023-04-22T07:24:21.982Z,14.20
2023-04-22T07:26:48.965Z,9.63
2023-04-22T07:29:16.402Z,14.43
2023-04-22T07:31:44.211Z,13.27
2023-04-22T07:34:12.424Z,13.85
2023-04-22T07:36:39.387Z,9.25
2023-04-22T07:39:06.739Z,11.60
2023-04-22T07:41:33.761Z,12.55
2023-04-22T07:44:01.094Z,12.43
2023-04-22T07:46:28.199Z,10.90
2023-04-22T07:48:55.463Z,10.70
2023-04-22T07:51:22.366Z,12.10
2023-04-22T07:53:50.068Z,16.15
2023-04-22T07:56:17.194Z,7.07
2023-04-22T07:58:44.695Z,13.70
2023-04-22T08:01:11.635Z,13.23
2023-04-22T08:03:39.257Z,7.93
2023-04-22T08:06:06.796Z,18.98
2023-04-22T08:08:33.937Z,7.20
2023-04-22T08:11:01.024Z,8.70
2023-04-22T08:13:28.205Z,7.57
2023-04-22T08:15:55.533Z,8.38
2023-04-22T08:18:22.807Z,14.27
2023-04-22T08:20:50.676Z,11.20
2023-04-22T08:23:17.826Z,12.15
2023-04-22T08:25:45.472Z,12.60
2023-04-22T08:28:13.009Z,12.02
2023-04-22T08:30:39.984Z,11.55
2023-04-22T08:33:07.910Z,11.90
2023-04-22T08:35:36.176Z,8.88
2023-04-22T08:38:03.775Z,13.48
2023-04-22T08:40:30.937Z,7.63
2023-04-22T08:42:58.231Z,9.52
2023-04-22T08:45:25.835Z,13.82
2023-04-22T08:47:54.253Z,10.77
2023-04-22T08:50:25.359Z,7.90
2023-04-22T08:55:20.546Z,6.93
2023-04-22T08:57:48.122Z,9.27
2023-04-22T09:00:16.417Z,8.40
2023-04-22T09:02:45.195Z,7.88
2023-04-22T09:05:14.239Z,11.45
2023-04-22T09:07:41.935Z,8.13
2023-04-22T09:10:11.835Z,7.60
2023-04-22T09:12:43.223Z,8.77
2023-04-22T09:15:11.076Z,8.77
2023-04-22T09:17:39.218Z,5.93
2023-04-22T09:20:08.000Z,5.05
2023-04-22T09:22:50.057Z,7.50
2023-04-22T09:25:27.792Z,8.88
2023-04-22T09:27:57.952Z,8.45
2023-04-22T09:30:26.779Z,7.50
2023-04-22T09:33:03.360Z,9.30
2023-04-22T09:35:35.102Z,7.20
2023-04-22T09:38:08.212Z,9.60
2023-04-22T09:40:36.622Z,6.63
2023-04-22T09:43:06.182Z,7.35
2023-04-22T09:45:34.466Z,5.35
2023-04-22T09:48:18.947Z,7.30
2023-04-22T09:50:49.812Z,5.25
2023-04-22T09:53:19.889Z,3.40
2023-04-22T09:55:50.154Z,4.15
2023-04-22T09:58:20.176Z,10.23
2023-04-22T10:00:53.401Z,5.13
2023-04-22T10:03:21.587Z,7.47
2023-04-22T10:05:48.755Z,7.72
2023-04-22T10:08:17.510Z,6.45
2023-04-22T10:10:45.150Z,8.27
2023-04-22T10:13:12.810Z,6.97
2023-04-22T10:15:42.279Z,6.70
2023-04-22T10:18:14.016Z,6.28
2023-04-22T10:20:43.078Z,6.20
2023-04-22T10:23:16.158Z,7.20
2023-04-22T10:25:43.096Z,6.28
2023-04-22T10:28:11.546Z,8.45
2023-04-22T10:30:39.614Z,5.95
2023-04-22T10:33:28.908Z,5.10
2023-04-22T10:36:09.717Z,6.13
2023-04-22T10:38:56.123Z,8.85
2023-04-22T10:41:30.575Z,5.32
2023-04-22T10:44:02.359Z,7.07
2023-04-22T10:46:38.081Z,5.15
2023-04-22T10:49:15.550Z,8.85
2023-04-22T10:51:51.370Z,6.93
2023-04-22T10:54:33.471Z,8.10
2023-04-22T10:57:08.136Z,6.78
2023-04-22T10:59:42.452Z,4.72
2023-04-22T11:02:12.132Z,12.32
2023-04-22T11:04:40.069Z,6.43
2023-04-22T11:07:12.859Z,7.00
2023-04-22T11:09:41.701Z,8.40
2023-04-22T11:12:39.726Z,5.28
2023-04-22T11:15:20.094Z,6.40
2023-04-22T11:17:50.504Z,5.35
2023-04-22T11:20:18.810Z,5.35
2023-04-22T11:22:51.222Z,8.38
2023-04-22T11:25:19.365Z,5.85
2023-04-22T11:27:46.867Z,5.40
2023-04-22T11:30:19.730Z,9.15
2023-04-22T11:32:49.690Z,8.05
2023-04-22T11:35:22.700Z,6.55
2023-04-22T11:37:52.840Z,8.38
2023-04-22T11:40:30.593Z,8.27
2023-04-22T11:43:01.566Z,6.00
2023-04-22T11:45:30.781Z,6.25
2023-04-22T11:47:58.534Z,6.78
2023-04-22T11:50:32.511Z,6.20
2023-04-22T11:53:02.606Z,5.63
2023-04-22T11:55:32.372Z,4.68
2023-04-22T11:58:05.610Z,5.35
2023-04-22T12:00:52.359Z,9.30
2023-04-22T12:03:24.678Z,7.32
2023-04-22T12:05:56.168Z,5.88
2023-04-22T12:08:31.448Z,6.78
2023-04-22T12:11:01.590Z,5.40
2023-04-22T12:13:34.758Z,6.07
2023-04-22T12:16:07.509Z,5.88
2023-04-22T12:18:39.735Z,4.50
2023-04-22T12:21:07.469Z,5.38
2023-04-22T12:23:54.161Z,7.50
2023-04-22T12:26:26.583Z,4.68
2023-04-22T12:28:55.947Z,5.05
2023-04-22T12:31:23.151Z,8.57
2023-04-22T12:33:50.450Z,5.65
2023-04-22T12:36:19.187Z,5.55
2023-04-22T12:38:46.158Z,7.32
2023-04-22T12:41:13.925Z,5.35
2023-04-22T12:43:40.774Z,7.32
2023-04-22T12:46:09.537Z,5.93
2023-04-22T12:48:37.754Z,6.05
2023-04-22T12:51:06.761Z,10.50
2023-04-22T12:53:34.419Z,6.72
2023-04-22T12:56:02.031Z,9.07
2023-04-22T12:58:28.965Z,5.03
2023-04-22T13:00:56.804Z,5.97
2023-04-22T13:03:24.389Z,4.97
2023-04-22T13:05:52.541Z,4.07
2023-04-22T13:08:19.468Z,5.22
2023-04-22T13:10:47.072Z,6.78
2023-04-22T13:13:18.364Z,8.40
2023-04-22T13:15:47.839Z,5.97
2023-04-22T13:18:16.971Z,7.60
2023-04-22T13:20:44.535Z,5.82
2023-04-22T13:23:12.976Z,7.32
2023-04-22T13:25:40.585Z,6.55
2023-04-22T13:28:07.548Z,8.27
2023-04-22T13:30:36.546Z,7.38
2023-04-22T13:33:03.518Z,6.38
2023-04-22T13:35:31.373Z,8.20
2023-04-22T13:37:58.880Z,12.15
2023-04-22T13:40:27.634Z,5.95
2023-04-22T13:42:55.437Z,13.23
2023-04-22T13:45:23.118Z,6.57
2023-04-22T13:47:50.161Z,11.43
2023-04-22T13:50:17.385Z,6.97
2023-04-22T13:52:44.611Z,4.70
2023-04-22T13:55:12.340Z,9.15
2023-04-22T13:57:39.205Z,8.13
2023-04-22T14:00:07.578Z,5.35
2023-04-22T14:02:40.796Z,4.93
2023-04-22T14:05:09.897Z,4.15
2023-04-22T14:07:37.375Z,7.82
2023-04-22T14:10:07.941Z,5.72
2023-04-22T14:12:34.914Z,9.38
2023-04-22T14:15:02.336Z,7.35
2023-04-22T14:17:29.932Z,7.15
2023-04-22T14:19:57.278Z,6.57
2023-04-22T14:22:24.298Z,6.30
2023-04-22T14:24:51.890Z,8.55
2023-04-22T14:27:18.795Z,8.40
2023-04-22T14:29:46.489Z,8.25
2023-04-22T14:32:13.401Z,10.13
2023-04-22T14:34:40.732Z,14.60
2023-04-22T14:37:07.945Z,6.50
2023-04-22T14:39:35.180Z,4.13
2023-04-22T14:42:03.849Z,6.65
2023-04-22T14:44:31.653Z,10.80
2023-04-22T14:46:59.096Z,8.43
2023-04-22T14:49:26.409Z,6.28
2023-04-22T14:51:53.686Z,7.32
2023-04-22T14:54:21.184Z,8.95
2023-04-22T14:56:48.155Z,7.63
2023-04-22T14:59:15.269Z,6.07
2023-04-22T15:01:43.219Z,7.45
2023-04-22T15:04:13.651Z,9.77
2023-04-22T15:06:41.359Z,10.63
2023-04-22T15:09:09.032Z,7.43
2023-04-22T15:11:36.354Z,7.35
2023-04-22T15:14:03.639Z,7.18
2023-04-22T15:16:30.750Z,7.07
2023-04-22T15:18:57.992Z,7.05
2023-04-22T15:21:24.940Z,9.68
2023-04-22T15:23:52.195Z,11.05
2023-04-22T15:26:19.078Z,7.03
2023-04-22T15:28:46.661Z,10.48
2023-04-22T15:31:13.760Z,9.27
2023-04-22T15:33:41.500Z,9.10
2023-04-22T15:36:09.726Z,9.57
2023-04-22T15:38:38.648Z,8.70
2023-04-22T15:41:05.772Z,10.35
2023-04-22T15:43:33.753Z,9.35
2023-04-22T15:46:01.342Z,6.47
2023-04-22T15:48:28.861Z,6.68
2023-04-22T15:50:56.160Z,4.55
2023-04-22T15:53:23.751Z,12.18
2023-04-22T15:55:51.671Z,10.25
2023-04-22T15:58:19.234Z,5.55
2023-04-22T16:00:46.992Z,12.85
2023-04-22T16:03:14.860Z,9.25
2023-04-22T16:05:42.197Z,7.68
2023-04-22T16:08:10.463Z,8.02
2023-04-22T16:10:38.014Z,6.13
2023-04-22T16:13:05.797Z,5.85
2023-04-22T16:15:33.653Z,5.70
2023-04-22T16:18:01.979Z,5.88
2023-04-22T16:20:29.853Z,5.35
2023-04-22T16:22:57.589Z,7.03
2023-04-22T16:25:24.766Z,5.97
2023-04-22T16:27:53.097Z,5.88
2023-04-22T16:30:20.626Z,6.05
2023-04-22T16:32:49.363Z,5.35
2023-04-22T16:35:16.550Z,6.55
2023-04-22T16:37:44.414Z,8.00
2023-04-22T16:40:11.752Z,11.80
2023-04-22T16:42:39.316Z,9.48
2023-04-22T16:45:08.006Z,9.73
2023-04-22T16:47:35.650Z,8.57
2023-04-22T16:50:03.269Z,9.52
2023-04-22T16:52:31.258Z,6.43
2023-04-22T16:54:58.713Z,10.18
2023-04-22T16:57:26.427Z,6.80
2023-04-22T16:59:53.477Z,7.00
2023-04-22T17:02:21.134Z,11.40
2023-04-22T17:04:48.539Z,7.57
2023-04-22T17:07:16.349Z,6.30
2023-04-22T17:09:43.880Z,5.88
2023-04-22T17:12:12.173Z,8.48
2023-04-22T17:14:39.515Z,9.13
2023-04-22T17:17:07.055Z,7.00
2023-04-22T17:19:34.058Z,7.15
2023-04-22T17:22:01.885Z,7.75
2023-04-22T17:24:29.009Z,9.75
2023-04-22T17:26:56.452Z,7.90
2023-04-22T17:29:24.101Z,8.10
2023-04-22T17:31:51.694Z,7.15
2023-04-22T17:34:19.482Z,9.30
2023-04-22T17:36:46.845Z,10.18
2023-04-22T17:39:14.042Z,9.60
2023-04-22T17:41:41.268Z,14.10
2023-04-22T17:44:08.946Z,10.50
2023-04-22T17:46:36.222Z,7.65
2023-04-22T17:49:03.115Z,6.63
2023-04-22T17:51:31.523Z,10.65
2023-04-22T17:53:58.614Z,7.60
2023-04-22T17:56:26.324Z,10.80
2023-04-22T17:58:53.244Z,9.52
2023-04-22T18:01:20.978Z,25.35
2023-04-22T18:03:48.123Z,24.60
2023-04-22T18:06:15.486Z,14.98
2023-04-22T18:08:42.591Z,20.45
2023-04-22T18:11:09.741Z,14.93
2023-04-22T18:13:36.948Z,12.57
2023-04-22T18:16:04.348Z,15.27
2023-04-22T18:18:31.439Z,13.88
2023-04-22T18:20:59.390Z,21.50
2023-04-22T18:23:26.883Z,34.05
2023-04-22T18:25:54.483Z,17.65
2023-04-22T18:28:21.792Z,14.55
2023-04-22T18:30:49.088Z,15.93
2023-04-22T18:33:16.437Z,21.50
2023-04-22T18:35:44.045Z,10.23
2023-04-22T18:38:10.914Z,12.23
2023-04-22T18:40:38.118Z,11.38
2023-04-22T18:43:05.544Z,13.68
2023-04-22T18:45:32.699Z,9.93
2023-04-22T18:47:59.665Z,10.90
2023-04-22T18:50:27.253Z,13.10
2023-04-22T18:52:54.263Z,9.40
2023-04-22T18:55:21.717Z,10.95
2023-04-22T18:57:49.291Z,14.93
2023-04-22T19:00:18.609Z,22.85
2023-04-22T19:02:48.880Z,9.85
2023-04-22T19:05:18.036Z,12.10
2023-04-22T19:07:45.289Z,16.15
2023-04-22T19:10:13.077Z,17.83
2023-04-22T19:12:41.035Z,10.82
2023-04-22T19:15:08.832Z,19.50
2023-04-22T19:17:36.095Z,17.38
2023-04-22T19:20:05.275Z,11.32
2023-04-22T19:22:32.425Z,9.30
2023-04-22T19:25:01.149Z,11.77
2023-04-22T19:27:28.241Z,12.63
2023-04-22T19:29:55.628Z,11.82
2023-04-22T19:32:22.620Z,12.45
2023-04-22T19:34:50.609Z,23.38
2023-04-22T19:37:18.581Z,17.65
2023-04-22T19:39:45.766Z,15.05
2023-04-22T19:42:13.189Z,16.00
2023-04-22T19:44:43.064Z,13.27
2023-04-22T19:47:10.183Z,12.80
2023-04-22T19:49:38.988Z,15.95
2023-04-22T19:52:10.985Z,16.15
2023-04-22T19:54:40.962Z,14.02
2023-04-22T19:57:10.634Z,21.30
2023-04-22T19:59:40.087Z,14.43
2023-04-22T20:02:08.268Z,16.25
2023-04-22T20:04:36.980Z,17.55
2023-04-22T20:07:05.523Z,15.77
2023-04-22T20:09:33.196Z,19.80
2023-04-22T20:12:00.399Z,20.33
2023-04-22T20:14:28.163Z,21.05
2023-04-22T20:16:55.546Z,13.38
2023-04-22T20:19:22.873Z,18.55
2023-04-22T20:21:50.847Z,21.08
2023-04-22T20:24:21.239Z,16.98
2023-04-22T20:26:49.846Z,13.43
2023-04-22T20:29:21.476Z,20.77
2023-04-22T20:31:48.817Z,17.58
2023-04-22T20:34:16.479Z,15.82
2023-04-22T20:36:43.767Z,21.38
2023-04-22T20:39:14.302Z,20.35
2023-04-22T20:41:41.782Z,19.90
2023-04-22T20:44:09.280Z,15.55
2023-04-22T20:46:37.551Z,21.52
2023-04-22T20:49:04.769Z,21.88
2023-04-22T20:51:32.178Z,19.80
2023-04-22T20:53:59.355Z,21.45
2023-04-22T20:56:27.400Z,21.13
2023-04-22T20:58:54.657Z,19.10
2023-04-22T21:01:22.352Z,23.27
2023-04-22T21:03:55.281Z,20.77
2023-04-22T21:06:23.440Z,22.63
2023-04-22T21:08:51.122Z,24.23
2023-04-22T21:11:18.983Z,19.08
2023-04-22T21:13:48.809Z,18.48
2023-04-22T21:16:19.541Z,17.88
2023-04-22T21:18:47.927Z,23.65
2023-04-22T21:21:17.541Z,18.42
2023-04-22T21:23:45.587Z,21.85
2023-04-22T21:26:14.054Z,28.88
2023-04-22T21:28:41.651Z,20.35
2023-04-22T21:31:08.882Z,25.42
2023-04-22T21:33:36.615Z,18.77
2023-04-22T21:36:04.014Z,14.02
2023-04-22T21:38:31.377Z,15.95
2023-04-22T21:40:58.340Z,16.48
2023-04-22T21:43:25.496Z,23.90
2023-04-22T21:45:52.870Z,20.52
2023-04-22T21:48:20.096Z,18.50
2023-04-22T21:50:47.014Z,18.83
2023-04-22T21:53:14.694Z,21.67
2023-04-22T21:55:41.736Z,22.27
2023-04-22T21:58:09.178Z,23.17
2023-04-22T22:00:37.908Z,28.85
2023-04-22T22:03:06.394Z,19.77
2023-04-22T22:05:33.542Z,30.63
2023-04-22T22:08:01.870Z,25.23
2023-04-22T22:10:28.845Z,25.67
2023-04-22T22:12:56.475Z,27.17
2023-04-22T22:15:23.458Z,26.85
2023-04-22T22:17:51.390Z,25.48
2023-04-22T22:20:20.536Z,27.67
2023-04-22T22:22:48.512Z,24.55
2023-04-22T22:25:16.494Z,26.40
2023-04-22T22:27:49.383Z,23.77
2023-04-22T22:30:18.271Z,25.50
2023-04-22T22:32:45.802Z,27.05
2023-04-22T22:35:13.458Z,26.23
2023-04-22T22:37:41.083Z,32.05
2023-04-22T22:40:09.039Z,28.17
2023-04-22T22:42:36.377Z,32.72
2023-04-22T22:45:05.175Z,39.15
2023-04-22T22:47:32.771Z,29.27
2023-04-22T22:50:00.474Z,42.17
2023-04-22T22:52:27.930Z,31.65
2023-04-22T22:54:55.306Z,35.47
2023-04-22T22:57:22.799Z,34.00
2023-04-22T22:59:49.924Z,36.78
2023-04-22T23:02:17.547Z,37.25
2023-04-22T23:04:45.844Z,46.72
2023-04-22T23:07:14.644Z,42.45
2023-04-22T23:09:42.522Z,41.00
2023-04-22T23:12:10.696Z,35.33
2023-04-22T23:14:37.639Z,39.92
2023-04-22T23:17:05.505Z,44.33
2023-04-22T23:19:32.627Z,44.05
2023-04-22T23:22:01.012Z,44.47
2023-04-22T23:24:28.479Z,44.15
2023-04-22T23:26:57.339Z,44.88
2023-04-22T23:29:24.894Z,44.10
2023-04-22T23:31:52.424Z,41.42
2023-04-22T23:34:23.712Z,40.17
2023-04-22T23:36:52.917Z,44.05
2023-04-22T23:39:19.835Z,46.58
2023-04-22T23:41:47.446Z,41.05
2023-04-22T23:44:14.310Z,41.67
2023-04-22T23:46:41.654Z,39.53
2023-04-22T23:49:08.902Z,46.15
2023-04-22T23:51:36.900Z,37.40
2023-04-22T23:54:04.486Z,43.38
2023-04-22T23:56:32.089Z,40.03
2023-04-22T23:58:59.498Z,41.38
